Time;durP1;ratioP1;P1;durP2;ratioP2;P2;SDS_P1;SDS_P2;PMS_P1;PMS_P2;Temp;Humidity;BMP_temperature;BMP_pressure;BME280_temperature;BME280_humidity;BME280_pressure;Samples;Min_cycle;Max_cycle;Signal;HPM_P1;HPM_P2
2022/02/21 00:00:48;;;;;;;0.30;0.30;;;7.70;96.80;;;;;;5015533;28;20174;-74
2022/02/21 00:03:15;;;;;;;0.30;0.30;;;7.80;96.60;;;;;;5015282;28;20680;-74
2022/02/21 00:05:41;;;;;;;0.30;0.30;;;8.00;96.40;;;;;;5015157;28;20182;-75
2022/02/21 00:08:07;;;;;;;0.30;0.30;;;7.90;96.30;;;;;;5015246;28;20197;-74
2022/02/21 00:10:33;;;;;;;0.40;0.40;;;7.80;96.30;;;;;;5015250;28;20472;-74
2022/02/21 00:12:59;;;;;;;0.30;0.30;;;8.10;96.30;;;;;;5015208;28;20422;-74
2022/02/21 00:15:25;;;;;;;0.30;0.30;;;8.10;96.00;;;;;;5015088;28;20169;-74
2022/02/21 00:17:51;;;;;;;0.30;0.30;;;8.00;96.20;;;;;;5015254;28;20170;-74
2022/02/21 00:20:17;;;;;;;0.30;0.30;;;7.80;96.10;;;;;;5015184;28;20184;-74
2022/02/21 00:22:43;;;;;;;0.30;0.30;;;7.70;96.20;;;;;;5014902;28;20201;-74
2022/02/21 00:25:09;;;;;;;0.30;0.30;;;7.80;96.40;;;;;;5013594;28;20547;-74
2022/02/21 00:27:36;;;;;;;0.35;0.35;;;8.00;96.70;;;;;;5014869;28;20177;-74
2022/02/21 00:30:03;;;;;;;0.30;0.30;;;7.90;96.20;;;;;;5015066;28;20265;-74
2022/02/21 00:32:28;;;;;;;0.30;0.30;;;8.10;96.20;;;;;;5014864;28;20212;-74
2022/02/21 00:34:54;;;;;;;0.30;0.30;;;8.00;95.80;;;;;;5012977;28;20174;-74
2022/02/21 00:37:19;;;;;;;0.30;0.30;;;8.00;95.80;;;;;;5014550;28;20200;-74
2022/02/21 00:39:45;;;;;;;0.30;0.30;;;8.10;96.00;;;;;;5014944;28;20178;-74
2022/02/21 00:42:12;;;;;;;0.30;0.30;;;8.00;95.90;;;;;;5014750;28;20690;-74
2022/02/21 00:44:40;;;;;;;0.30;0.30;;;8.00;95.90;;;;;;5014970;28;20401;-74
2022/02/21 00:47:07;;;;;;;0.52;0.52;;;8.20;95.70;;;;;;5013328;28;20183;-74
2022/02/21 00:49:33;;;;;;;0.30;0.30;;;8.10;95.70;;;;;;5014852;28;20564;-74
2022/02/21 00:51:58;;;;;;;0.40;0.40;;;8.20;95.70;;;;;;5014461;28;20218;-74
2022/02/21 00:54:27;;;;;;;0.30;0.30;;;8.00;95.70;;;;;;5014681;28;20155;-74
2022/02/21 00:56:53;;;;;;;0.40;0.40;;;7.80;95.90;;;;;;5014399;28;20253;-74
2022/02/21 00:59:19;;;;;;;0.30;0.30;;;7.90;96.10;;;;;;5014492;28;20584;-74
2022/02/21 01:01:45;;;;;;;0.30;0.30;;;7.90;95.90;;;;;;5014461;28;20176;-74
2022/02/21 01:04:10;;;;;;;0.30;0.30;;;7.80;96.00;;;;;;5014306;28;20175;-74
2022/02/21 01:06:36;;;;;;;0.30;0.30;;;7.80;96.20;;;;;;5014132;28;20832;-74
2022/02/21 01:09:02;;;;;;;0.30;0.30;;;8.00;96.10;;;;;;5014186;28;20263;-74
2022/02/21 01:11:30;;;;;;;0.30;0.30;;;8.20;95.90;;;;;;5014390;28;20651;-74
2022/02/21 01:13:57;;;;;;;0.30;0.30;;;8.20;96.00;;;;;;5014083;28;20741;-74
2022/02/21 01:16:24;;;;;;;0.30;0.30;;;8.20;96.00;;;;;;5013908;28;20171;-74
2022/02/21 01:18:51;;;;;;;0.40;0.40;;;8.00;96.20;;;;;;5014036;28;20261;-74
2022/02/21 01:21:17;;;;;;;0.40;0.40;;;7.80;96.80;;;;;;5014065;28;20229;-74
2022/02/21 01:23:42;;;;;;;0.30;0.30;;;7.80;97.00;;;;;;5013923;28;20201;-74
2022/02/21 01:26:08;;;;;;;1.13;1.13;;;7.70;97.40;;;;;;5013769;28;20427;-74
2022/02/21 01:28:34;;;;;;;0.30;0.30;;;7.80;97.80;;;;;;5014116;28;20483;-74
2022/02/21 01:31:00;;;;;;;0.30;0.30;;;7.80;97.90;;;;;;5014048;28;20170;-74
2022/02/21 01:33:25;;;;;;;0.30;0.30;;;7.60;98.10;;;;;;5013991;28;20556;-74
2022/02/21 01:35:51;;;;;;;0.40;0.40;;;7.50;99.00;;;;;;5013602;28;20507;-74
2022/02/21 01:38:17;;;;;;;0.40;0.40;;;7.30;99.60;;;;;;5013907;28;20185;-74
2022/02/21 01:40:43;;;;;;;0.40;0.40;;;7.20;99.90;;;;;;5013924;28;20462;-74
2022/02/21 01:43:08;;;;;;;0.40;0.40;;;7.10;99.90;;;;;;5013923;28;20197;-74
2022/02/21 01:45:34;;;;;;;0.30;0.30;;;7.00;99.90;;;;;;5012606;28;20171;-74
2022/02/21 01:48:00;;;;;;;0.30;0.30;;;6.80;99.90;;;;;;5013678;28;20698;-74
2022/02/21 01:50:26;;;;;;;0.30;0.30;;;6.80;99.90;;;;;;5012385;28;20203;-74
2022/02/21 01:52:52;;;;;;;0.37;0.37;;;7.00;99.90;;;;;;5013591;28;20212;-74
2022/02/21 01:55:17;;;;;;;0.30;0.30;;;7.10;99.90;;;;;;5013861;28;20757;-74
2022/02/21 01:57:44;;;;;;;0.30;0.30;;;6.50;99.90;;;;;;5013824;28;20172;-74
2022/02/21 02:00:12;;;;;;;0.40;0.40;;;6.60;99.90;;;;;;5013755;28;20184;-73
2022/02/21 02:02:38;;;;;;;0.40;0.40;;;6.70;99.90;;;;;;5013461;28;20195;-73
2022/02/21 02:05:03;;;;;;;0.30;0.30;;;6.50;99.90;;;;;;5013324;28;20168;-73
2022/02/21 02:07:29;;;;;;;0.40;0.40;;;6.60;99.90;;;;;;5013922;28;20238;-73
2022/02/21 02:09:55;;;;;;;0.40;0.40;;;6.80;99.90;;;;;;5013571;28;20663;-73
2022/02/21 02:12:20;;;;;;;0.33;0.33;;;6.80;99.90;;;;;;5013523;28;20685;-73
2022/02/21 02:14:46;;;;;;;0.30;0.30;;;6.90;99.90;;;;;;5013381;28;20338;-73
2022/02/21 02:17:14;;;;;;;0.37;0.37;;;6.60;99.90;;;;;;5013311;28;20255;-73
2022/02/21 02:19:42;;;;;;;0.40;0.40;;;6.60;99.90;;;;;;5013455;28;20539;-73
2022/02/21 02:22:19;;;;;;;0.40;0.40;;;6.70;99.90;;;;;;5013488;28;20203;-73
2022/02/21 02:24:47;;;;;;;0.40;0.40;;;6.70;99.90;;;;;;5013499;28;20171;-73
2022/02/21 02:27:13;;;;;;;0.30;0.30;;;6.90;99.90;;;;;;5013303;28;20258;-73
2022/02/21 02:29:42;;;;;;;0.30;0.30;;;6.90;99.90;;;;;;5011997;28;20203;-73
2022/02/21 02:32:10;;;;;;;0.40;0.40;;;6.80;99.90;;;;;;5013192;28;20659;-73
2022/02/21 02:34:39;;;;;;;0.30;0.30;;;6.90;99.90;;;;;;5013591;28;20172;-73
2022/02/21 02:37:05;;;;;;;0.30;0.30;;;6.70;99.90;;;;;;5013272;28;20167;-73
2022/02/21 02:39:31;;;;;;;0.40;0.40;;;6.80;99.90;;;;;;5013440;28;20571;-73
2022/02/21 02:41:58;;;;;;;0.30;0.30;;;6.70;99.90;;;;;;5013080;28;20354;-73
2022/02/21 02:44:23;;;;;;;0.40;0.40;;;6.50;99.90;;;;;;5013208;28;20943;-73
2022/02/21 02:46:49;;;;;;;0.37;0.37;;;6.50;99.90;;;;;;5013108;28;20268;-74
2022/02/21 02:49:15;;;;;;;0.30;0.30;;;6.80;99.90;;;;;;5013257;28;20199;-74
2022/02/21 02:51:41;;;;;;;0.33;0.33;;;6.70;99.90;;;;;;5013113;28;20172;-74
2022/02/21 02:54:08;;;;;;;0.30;0.30;;;6.60;99.90;;;;;;5013202;28;20427;-74
2022/02/21 02:56:40;;;;;;;0.45;0.45;;;6.50;99.90;;;;;;5013074;28;20573;-73
2022/02/21 02:59:07;;;;;;;0.30;0.30;;;6.30;99.90;;;;;;5016840;28;20243;-73
2022/02/21 03:01:33;;;;;;;0.30;0.30;;;6.50;99.90;;;;;;5016801;28;20258;-73
2022/02/21 03:03:59;;;;;;;0.40;0.40;;;6.70;99.90;;;;;;5016537;28;20235;-73
2022/02/21 03:06:25;;;;;;;0.30;0.30;;;6.80;99.90;;;;;;5016285;28;20404;-74
2022/02/21 03:08:51;;;;;;;0.40;0.40;;;7.00;99.90;;;;;;5016521;28;20713;-73
2022/02/21 03:11:17;;;;;;;0.40;0.40;;;7.10;99.90;;;;;;5015146;28;20228;-74
2022/02/21 03:13:42;;;;;;;0.40;0.40;;;7.00;99.90;;;;;;5016319;28;20205;-73
2022/02/21 03:16:08;;;;;;;0.30;0.30;;;6.90;99.90;;;;;;5016201;28;20164;-74
2022/02/21 03:18:34;;;;;;;0.30;0.30;;;6.90;99.90;;;;;;5015121;28;20187;-73
2022/02/21 03:21:00;;;;;;;0.40;0.40;;;6.70;99.90;;;;;;5016302;28;20540;-73
2022/02/21 03:23:25;;;;;;;0.30;0.30;;;6.60;99.90;;;;;;5016154;28;20704;-74
2022/02/21 03:25:51;;;;;;;0.30;0.30;;;6.60;99.90;;;;;;5015935;28;20465;-74
2022/02/21 03:28:17;;;;;;;0.30;0.30;;;6.80;99.90;;;;;;5016008;28;20180;-74
2022/02/21 03:30:43;;;;;;;0.30;0.30;;;6.80;99.90;;;;;;5016063;28;20168;-74
2022/02/21 03:33:09;;;;;;;0.30;0.30;;;6.80;99.90;;;;;;5015879;28;20242;-74
2022/02/21 03:35:35;;;;;;;0.30;0.30;;;6.80;99.90;;;;;;5015833;28;20568;-74
2022/02/21 03:38:01;;;;;;;0.30;0.30;;;6.60;99.90;;;;;;5015837;28;20167;-74
2022/02/21 03:40:27;;;;;;;0.30;0.30;;;6.60;99.90;;;;;;5015838;28;20745;-74
2022/02/21 03:42:53;;;;;;;0.30;0.30;;;6.80;99.90;;;;;;5015698;28;20200;-74
2022/02/21 03:45:19;;;;;;;0.30;0.30;;;6.70;99.90;;;;;;5015627;28;20179;-73
2022/02/21 03:47:45;;;;;;;0.30;0.30;;;6.50;99.90;;;;;;5016053;28;20541;-73
2022/02/21 03:50:11;;;;;;;0.30;0.30;;;6.70;99.90;;;;;;5015805;28;20200;-73
2022/02/21 03:52:37;;;;;;;0.97;0.87;;;6.70;99.90;;;;;;5015495;28;20207;-73
2022/02/21 03:55:03;;;;;;;0.30;0.30;;;6.70;99.90;;;;;;5015394;28;20168;-73
2022/02/21 03:57:28;;;;;;;0.30;0.30;;;6.80;99.90;;;;;;5015544;28;20181;-74
2022/02/21 03:59:54;;;;;;;0.30;0.30;;;6.90;99.90;;;;;;5015667;28;20487;-74
2022/02/21 04:02:20;;;;;;;0.30;0.30;;;7.10;99.90;;;;;;5015399;28;20283;-73
2022/02/21 04:04:45;;;;;;;0.30;0.30;;;6.90;99.90;;;;;;5015375;28;20258;-73
2022/02/21 04:07:11;;;;;;;0.30;0.30;;;6.70;99.90;;;;;;5015270;28;20183;-73
2022/02/21 04:09:37;;;;;;;0.30;0.30;;;6.90;99.90;;;;;;5012986;28;20210;-73
2022/02/21 04:12:03;;;;;;;0.30;0.30;;;7.10;99.90;;;;;;5015366;28;20196;-74
2022/02/21 04:14:29;;;;;;;0.30;0.30;;;7.10;99.90;;;;;;5015301;28;20544;-74
2022/02/21 04:16:55;;;;;;;0.40;0.40;;;7.10;99.90;;;;;;5015119;28;20255;-73
2022/02/21 04:19:21;;;;;;;0.30;0.30;;;7.10;99.90;;;;;;5015255;28;20533;-73
2022/02/21 04:21:47;;;;;;;0.30;0.30;;;6.90;99.90;;;;;;5015177;28;20643;-73
2022/02/21 04:24:13;;;;;;;0.30;0.30;;;7.00;99.90;;;;;;5015191;28;20403;-73
2022/02/21 04:26:38;;;;;;;0.30;0.30;;;7.00;99.90;;;;;;5014873;28;20406;-73
2022/02/21 04:29:04;;;;;;;0.30;0.30;;;6.70;99.90;;;;;;5014951;28;20514;-73
2022/02/21 04:31:30;;;;;;;0.30;0.30;;;7.00;99.90;;;;;;5014982;28;20168;-73
2022/02/21 04:33:55;;;;;;;0.40;0.40;;;6.90;99.90;;;;;;5014791;28;20193;-73
2022/02/21 04:36:21;;;;;;;0.40;0.40;;;6.80;99.90;;;;;;5014689;28;20177;-73
2022/02/21 04:38:47;;;;;;;0.30;0.30;;;6.70;99.90;;;;;;5014705;28;20172;-73
2022/02/21 04:41:13;;;;;;;0.30;0.30;;;6.40;99.90;;;;;;5014665;28;20172;-73
2022/02/21 04:43:38;;;;;;;0.30;0.30;;;6.30;99.90;;;;;;5014636;28;20438;-73
2022/02/21 04:46:04;;;;;;;0.40;0.40;;;6.40;99.90;;;;;;5014466;28;20167;-73
2022/02/21 04:48:30;;;;;;;0.30;0.30;;;6.50;99.90;;;;;;5014442;28;20821;-73
2022/02/21 04:50:56;;;;;;;0.30;0.30;;;6.60;99.90;;;;;;5013487;28;20242;-73
2022/02/21 04:53:22;;;;;;;0.30;0.30;;;6.70;99.90;;;;;;5014441;28;20446;-73
2022/02/21 04:55:48;;;;;;;0.40;0.40;;;6.70;99.90;;;;;;5014264;28;20406;-73
2022/02/21 04:58:14;;;;;;;0.40;0.40;;;6.80;99.90;;;;;;5014480;28;20539;-73
2022/02/21 05:00:39;;;;;;;0.30;0.30;;;6.90;99.90;;;;;;5014456;28;20183;-73
2022/02/21 05:03:05;;;;;;;0.30;0.30;;;7.00;99.90;;;;;;5014315;28;20205;-73
2022/02/21 05:05:31;;;;;;;0.40;0.40;;;6.80;99.90;;;;;;5014132;28;20407;-72
2022/02/21 05:07:57;;;;;;;0.30;0.30;;;6.50;99.90;;;;;;5014632;28;20401;-73
2022/02/21 05:10:22;;;;;;;0.30;0.30;;;6.60;99.90;;;;;;5014475;28;20609;-73
2022/02/21 05:12:48;;;;;;;0.30;0.30;;;6.50;99.90;;;;;;5014239;28;20193;-73
2022/02/21 05:15:14;;;;;;;0.40;0.40;;;6.20;99.90;;;;;;5014099;28;20195;-73
2022/02/21 05:17:40;;;;;;;0.30;0.30;;;6.10;99.90;;;;;;5012803;28;20211;-73
2022/02/21 05:20:09;;;;;;;0.38;0.38;;;5.90;99.90;;;;;;5013989;28;20172;-73
2022/02/21 05:22:35;;;;;;;0.40;0.40;;;5.70;99.80;;;;;;5013933;28;20199;-73
2022/02/21 05:25:02;;;;;;;0.40;0.40;;;5.50;99.80;;;;;;5014215;28;20258;-72
2022/02/21 05:27:27;;;;;;;0.30;0.30;;;5.40;99.90;;;;;;5013495;28;20223;-73
2022/02/21 05:29:53;;;;;;;0.30;0.30;;;5.10;99.90;;;;;;5014183;28;20238;-73
2022/02/21 05:32:19;;;;;;;0.40;0.40;;;4.80;99.90;;;;;;5012835;28;20270;-73
2022/02/21 05:34:45;;;;;;;0.33;0.33;;;4.60;99.90;;;;;;5013259;28;20498;-73
2022/02/21 05:37:11;;;;;;;0.40;0.40;;;4.40;99.90;;;;;;5012504;28;20411;-76
2022/02/21 05:39:37;;;;;;;0.40;0.40;;;4.00;99.90;;;;;;5013839;28;20417;-73
2022/02/21 05:42:04;;;;;;;0.30;0.30;;;3.90;99.90;;;;;;5012570;28;20199;-73
2022/02/21 05:44:29;;;;;;;0.30;0.30;;;3.70;99.70;;;;;;5014126;28;20175;-76
2022/02/21 05:46:55;;;;;;;0.30;0.30;;;3.60;99.90;;;;;;5013594;28;20174;-75
2022/02/21 05:49:21;;;;;;;0.40;0.40;;;3.50;99.90;;;;;;5014102;28;20194;-77
2022/02/21 05:51:46;;;;;;;0.40;0.40;;;3.50;99.90;;;;;;5013545;28;20170;-74
2022/02/21 05:54:12;;;;;;;0.30;0.30;;;3.30;99.90;;;;;;5014081;28;20155;-74
2022/02/21 05:56:38;;;;;;;0.30;0.30;;;3.40;99.90;;;;;;5012827;28;20314;-76
2022/02/21 05:59:04;;;;;;;0.30;0.30;;;3.50;99.90;;;;;;5014026;28;20873;-76
2022/02/21 06:01:30;;;;;;;0.40;0.40;;;3.80;99.90;;;;;;5014258;28;20174;-75
2022/02/21 06:03:56;;;;;;;0.40;0.40;;;3.80;99.90;;;;;;5013591;28;20221;-74
2022/02/21 06:06:22;;;;;;;0.30;0.30;;;3.60;99.90;;;;;;5013385;28;20659;-74
2022/02/21 06:08:47;;;;;;;0.30;0.30;;;3.50;99.90;;;;;;5013553;28;20205;-75
2022/02/21 06:11:13;;;;;;;0.30;0.30;;;3.40;99.90;;;;;;5013715;28;20185;-73
2022/02/21 06:13:39;;;;;;;0.30;0.30;;;3.30;99.90;;;;;;5012512;28;20201;-73
2022/02/21 06:16:05;;;;;;;0.40;0.40;;;3.30;99.90;;;;;;5011490;28;20171;-73
2022/02/21 06:18:30;;;;;;;0.30;0.30;;;3.30;99.90;;;;;;5012497;28;20405;-77
2022/02/21 06:20:56;;;;;;;0.40;0.40;;;3.50;99.90;;;;;;5013618;28;20791;-75
2022/02/21 06:23:22;;;;;;;0.40;0.40;;;3.70;99.90;;;;;;5012360;28;20194;-75
2022/02/21 06:25:47;;;;;;;0.37;0.37;;;3.90;99.90;;;;;;5013492;28;20174;-73
2022/02/21 06:28:13;;;;;;;0.40;0.40;;;3.90;98.80;;;;;;5013682;28;20630;-75
2022/02/21 06:30:39;;;;;;;0.30;0.30;;;4.00;99.40;;;;;;5012812;28;20207;-76
2022/02/21 06:33:05;;;;;;;0.40;0.40;;;4.10;99.60;;;;;;5014079;28;20964;-74
2022/02/21 06:35:31;;;;;;;0.30;0.30;;;4.20;99.40;;;;;;5016153;28;20415;-74
2022/02/21 06:37:59;;;;;;;0.40;0.40;;;4.20;99.20;;;;;;5015388;28;20411;-74
2022/02/21 06:40:28;;;;;;;0.30;0.30;;;4.30;99.10;;;;;;5016578;28;20254;-74
2022/02/21 06:42:55;;;;;;;0.40;0.40;;;3.90;99.30;;;;;;5016990;28;20573;-74
2022/02/21 06:45:22;;;;;;;0.40;0.40;;;3.90;99.90;;;;;;5016664;28;20172;-74
2022/02/21 06:47:47;;;;;;;0.40;0.40;;;4.00;99.90;;;;;;5016699;28;20182;-74
2022/02/21 06:50:13;;;;;;;0.30;0.30;;;4.10;99.90;;;;;;5016926;28;20206;-74
2022/02/21 06:52:39;;;;;;;0.30;0.30;;;4.20;99.90;;;;;;5015318;28;20238;-74
2022/02/21 06:55:05;;;;;;;0.30;0.30;;;4.20;99.90;;;;;;5016548;28;20172;-74
2022/02/21 06:57:31;;;;;;;0.30;0.30;;;4.30;99.70;;;;;;5016556;28;20171;-73
2022/02/21 06:59:56;;;;;;;0.30;0.30;;;3.70;99.20;;;;;;5016577;28;20915;-74
2022/02/21 07:02:22;;;;;;;0.37;0.37;;;3.80;99.90;;;;;;5015607;28;20199;-72
2022/02/21 07:04:48;;;;;;;0.30;0.30;;;3.90;99.90;;;;;;5016954;28;20183;-74
2022/02/21 07:07:14;;;;;;;0.30;0.30;;;4.20;99.90;;;;;;5015798;28;20206;-75
2022/02/21 07:09:40;;;;;;;0.40;0.40;;;4.20;99.90;;;;;;5016772;28;20231;-75
2022/02/21 07:12:06;;;;;;;0.40;0.40;;;4.00;99.60;;;;;;5016938;28;20286;-78
2022/02/21 07:14:32;;;;;;;0.40;0.40;;;4.10;99.60;;;;;;5016882;28;20214;-78
2022/02/21 07:16:58;;;;;;;0.40;0.40;;;4.30;99.60;;;;;;5016203;28;20199;-76
2022/02/21 07:19:24;;;;;;;0.40;0.40;;;4.50;99.80;;;;;;5016358;28;20411;-76
2022/02/21 07:21:50;;;;;;;0.30;0.30;;;4.70;99.40;;;;;;5016426;28;20175;-77
2022/02/21 07:24:15;;;;;;;0.40;0.40;;;4.70;98.30;;;;;;5014894;28;20543;-72
2022/02/21 07:26:41;;;;;;;0.97;0.97;;;4.40;97.30;;;;;;5016308;28;20255;-72
2022/02/21 07:29:07;;;;;;;0.40;0.40;;;4.40;97.80;;;;;;5016648;28;20199;-71
2022/02/21 07:31:33;;;;;;;0.30;0.30;;;4.30;97.80;;;;;;5016091;28;20182;-76
2022/02/21 07:34:01;;;;;;;0.30;0.30;;;4.30;98.00;;;;;;5014831;28;20250;-74
2022/02/21 07:36:27;;;;;;;0.30;0.30;;;4.30;97.60;;;;;;5015497;28;20261;-72
2022/02/21 07:38:53;;;;;;;0.30;0.30;;;4.20;97.30;;;;;;5013443;28;20215;-72
2022/02/21 07:41:19;;;;;;;0.30;0.30;;;3.90;97.60;;;;;;5014709;28;20178;-72
2022/02/21 07:43:44;;;;;;;0.30;0.30;;;4.00;97.80;;;;;;5015807;28;20195;-71
2022/02/21 07:46:11;;;;;;;0.30;0.30;;;4.20;98.40;;;;;;5015467;28;20174;-71
2022/02/21 07:48:37;;;;;;;0.32;0.32;;;4.50;98.00;;;;;;5013544;28;20191;-74
2022/02/21 07:51:03;;;;;;;0.40;0.40;;;4.60;97.70;;;;;;5015739;28;20238;-74
2022/02/21 07:53:28;;;;;;;0.40;0.40;;;4.50;96.90;;;;;;5014410;28;20208;-75
2022/02/21 07:55:54;;;;;;;0.30;0.30;;;3.90;97.00;;;;;;5015638;28;20406;-75
2022/02/21 07:58:19;;;;;;;0.30;0.30;;;3.70;97.50;;;;;;5015735;28;20185;-71
2022/02/21 08:00:45;;;;;;;0.33;0.33;;;3.70;98.10;;;;;;5013325;28;20259;-71
2022/02/21 08:03:11;;;;;;;0.30;0.30;;;3.70;97.80;;;;;;5014046;28;20180;-71
2022/02/21 08:05:38;;;;;;;0.30;0.30;;;3.70;98.00;;;;;;5013567;28;20724;-74
2022/02/21 08:08:05;;;;;;;0.30;0.30;;;3.50;98.40;;;;;;5014637;28;20172;-83
2022/02/21 08:10:32;;;;;;;0.32;0.32;;;3.80;99.30;;;;;;5015037;28;20665;-76
2022/02/21 08:12:57;;;;;;;0.40;0.40;;;4.30;98.90;;;;;;5013368;28;20562;-75
2022/02/21 08:15:23;;;;;;;0.40;0.40;;;4.30;97.80;;;;;;5015199;28;20175;-73
2022/02/21 08:17:49;;;;;;;0.40;0.40;;;4.30;97.50;;;;;;5014047;28;20546;-72
2022/02/21 08:20:17;;;;;;;0.40;0.40;;;4.50;97.40;;;;;;5015721;28;20183;-72
2022/02/21 08:22:43;;;;;;;0.30;0.30;;;4.40;97.40;;;;;;5015397;28;20206;-72
2022/02/21 08:25:10;;;;;;;0.40;0.40;;;4.50;97.20;;;;;;5014112;28;20175;-74
2022/02/21 08:27:38;;;;;;;0.40;0.40;;;4.40;97.30;;;;;;5015457;28;20246;-72
2022/02/21 08:30:04;;;;;;;0.40;0.40;;;4.40;97.70;;;;;;5015201;28;20260;-71
2022/02/21 08:32:30;;;;;;;0.57;0.57;;;4.30;97.20;;;;;;5015232;28;20599;-74
2022/02/21 08:34:56;;;;;;;0.30;0.30;;;4.70;97.60;;;;;;5016305;28;20171;-77
2022/02/21 08:37:21;;;;;;;0.40;0.40;;;4.80;97.20;;;;;;5015152;28;20171;-73
2022/02/21 08:39:47;;;;;;;0.30;0.30;;;4.40;96.90;;;;;;5015488;28;20168;-73
2022/02/21 08:42:13;;;;;;;0.40;0.40;;;4.40;97.70;;;;;;5015286;28;20191;-75
2022/02/21 08:44:39;;;;;;;0.30;0.30;;;4.40;97.00;;;;;;5015030;28;20175;-76
2022/02/21 08:47:05;;;;;;;0.40;0.40;;;4.60;97.10;;;;;;5014606;28;20175;-75
2022/02/21 08:49:31;;;;;;;0.40;0.40;;;4.70;97.50;;;;;;5013350;28;20280;-75
2022/02/21 08:51:56;;;;;;;0.40;0.40;;;4.80;96.90;;;;;;5014734;28;20705;-76
2022/02/21 08:54:23;;;;;;;0.40;0.40;;;4.40;97.20;;;;;;5013306;28;20757;-74
2022/02/21 08:56:49;;;;;;;2.05;1.95;;;4.40;97.90;;;;;;5013192;28;20175;-74
2022/02/21 08:59:17;;;;;;;0.40;0.40;;;4.50;97.60;;;;;;5013022;28;20171;-74
2022/02/21 09:01:44;;;;;;;0.40;0.40;;;4.50;97.50;;;;;;5013728;28;20604;-74
2022/02/21 09:04:13;;;;;;;0.40;0.40;;;4.40;97.80;;;;;;5014555;28;20226;-75
2022/02/21 09:06:40;;;;;;;0.30;0.30;;;4.70;97.80;;;;;;5012393;28;20233;-71
2022/02/21 09:09:06;;;;;;;0.40;0.40;;;5.00;97.50;;;;;;5014397;28;20209;-73
2022/02/21 09:11:32;;;;;;;0.37;0.37;;;5.00;96.90;;;;;;5011504;28;20168;-74
2022/02/21 09:13:58;;;;;;;0.40;0.40;;;5.20;97.20;;;;;;5013447;28;20195;-74
2022/02/21 09:16:23;;;;;;;0.40;0.40;;;5.40;96.80;;;;;;5012917;28;20820;-74
2022/02/21 09:18:49;;;;;;;0.40;0.40;;;5.20;96.30;;;;;;5013938;28;20178;-74
2022/02/21 09:21:15;;;;;;;0.30;0.30;;;5.30;96.30;;;;;;5014311;28;20175;-74
2022/02/21 09:23:40;;;;;;;1.43;1.33;;;5.20;96.30;;;;;;5014563;28;20191;-74
2022/02/21 09:26:06;;;;;;;0.30;0.30;;;5.40;96.50;;;;;;5013857;28;20229;-73
2022/02/21 09:28:31;;;;;;;0.30;0.30;;;5.60;96.10;;;;;;5014205;28;20202;-74
2022/02/21 09:30:57;;;;;;;0.37;0.37;;;5.50;95.40;;;;;;5014183;28;20576;-74
2022/02/21 09:33:23;;;;;;;0.40;0.40;;;5.50;95.60;;;;;;5012981;28;20196;-72
2022/02/21 09:35:49;;;;;;;0.40;0.40;;;5.40;95.90;;;;;;5013758;28;20199;-71
2022/02/21 09:38:15;;;;;;;0.30;0.30;;;5.40;96.10;;;;;;5012538;28;20656;-71
2022/02/21 09:40:44;;;;;;;0.40;0.40;;;5.40;95.90;;;;;;5014474;28;20180;-71
2022/02/21 09:43:12;;;;;;;0.40;0.40;;;5.60;96.20;;;;;;5013880;28;20426;-71
2022/02/21 09:45:42;;;;;;;0.40;0.40;;;5.60;95.40;;;;;;5013800;28;20191;-72
2022/02/21 09:48:08;;;;;;;0.30;0.30;;;5.30;95.20;;;;;;5013120;28;20519;-71
2022/02/21 09:50:34;;;;;;;0.40;0.40;;;5.20;95.60;;;;;;5014286;28;20221;-72
2022/02/21 09:53:04;;;;;;;0.30;0.30;;;5.30;95.70;;;;;;5013678;28;20453;-73
2022/02/21 09:55:32;;;;;;;0.40;0.40;;;5.30;95.50;;;;;;5012422;28;20760;-72
2022/02/21 09:57:58;;;;;;;0.30;0.30;;;5.00;95.00;;;;;;5013854;28;20168;-73
2022/02/21 10:00:24;;;;;;;0.40;0.40;;;5.10;95.50;;;;;;5014013;28;20247;-73
2022/02/21 10:02:51;;;;;;;0.38;0.38;;;5.20;95.40;;;;;;5014056;28;20645;-73
2022/02/21 10:05:25;;;;;;;0.40;0.40;;;5.30;95.40;;;;;;5013363;28;20188;-73
2022/02/21 10:07:52;;;;;;;0.40;0.40;;;5.40;95.40;;;;;;5016229;28;20184;-72
2022/02/21 10:10:23;;;;;;;0.32;0.32;;;5.50;95.70;;;;;;5014917;28;20203;-72
2022/02/21 10:12:57;;;;;;;0.40;0.40;;;5.80;95.80;;;;;;5017883;28;20191;-71
2022/02/21 10:15:34;;;;;;;0.40;0.40;;;6.00;95.20;;;;;;5017791;28;20616;-75
2022/02/21 10:18:14;;;;;;;0.40;0.40;;;5.90;94.20;;;;;;5017655;28;20226;-74
2022/02/21 10:20:55;;;;;;;0.70;0.70;;;5.70;94.20;;;;;;5017495;28;20175;-73
2022/02/21 10:23:21;;;;;;;0.40;0.40;;;5.80;94.90;;;;;;5017631;28;20592;-71
2022/02/21 10:25:57;;;;;;;0.40;0.40;;;5.80;94.50;;;;;;5016725;28;20176;-72
2022/02/21 10:28:35;;;;;;;0.32;0.32;;;5.60;94.40;;;;;;5014660;28;20892;-72
2022/02/21 10:31:12;;;;;;;0.38;0.38;;;5.90;94.40;;;;;;5015145;28;20209;-72
2022/02/21 10:33:38;;;;;;;0.40;0.40;;;5.90;93.80;;;;;;5015781;28;20187;-71
2022/02/21 10:36:28;;;;;;;0.40;0.40;;;6.00;94.10;;;;;;5016886;28;20226;-72
2022/02/21 10:38:54;;;;;;;0.30;0.30;;;6.00;93.70;;;;;;5015878;28;20542;-72
2022/02/21 10:41:22;;;;;;;0.40;0.40;;;6.10;94.20;;;;;;5017006;28;20182;-72
2022/02/21 10:43:48;;;;;;;0.40;0.40;;;6.00;93.70;;;;;;5016808;28;20506;-72
2022/02/21 10:46:14;;;;;;;0.40;0.40;;;6.10;94.40;;;;;;5016922;28;20190;-72
2022/02/21 10:48:44;;;;;;;0.40;0.40;;;5.80;93.70;;;;;;5016887;28;20175;-72
2022/02/21 10:51:10;;;;;;;0.40;0.40;;;5.60;94.70;;;;;;5016884;28;20178;-72
2022/02/21 10:53:49;;;;;;;0.30;0.30;;;6.00;95.30;;;;;;5015516;28;20218;-71
2022/02/21 10:56:16;;;;;;;0.40;0.40;;;6.20;93.60;;;;;;5015657;28;20167;-71
2022/02/21 10:58:42;;;;;;;0.40;0.40;;;6.00;92.70;;;;;;5015156;28;20172;-74
2022/02/21 11:01:10;;;;;;;0.33;0.33;;;5.70;92.90;;;;;;5014304;28;20262;-73
2022/02/21 11:03:36;;;;;;;0.30;0.30;;;6.10;94.50;;;;;;5013654;28;20434;-71
2022/02/21 11:06:04;;;;;;;0.30;0.30;;;6.40;93.20;;;;;;5015604;28;20204;-72
2022/02/21 11:08:31;;;;;;;0.40;0.40;;;6.60;93.10;;;;;;5015384;28;20180;-72
2022/02/21 11:11:04;;;;;;;0.40;0.40;;;7.00;93.30;;;;;;5015244;28;20173;-72
2022/02/21 11:13:31;;;;;;;0.30;0.30;;;7.20;92.40;;;;;;5014509;28;20194;-72
2022/02/21 11:15:57;;;;;;;0.30;0.30;;;7.50;92.10;;;;;;5014539;28;20532;-72
2022/02/21 11:18:24;;;;;;;0.30;0.30;;;7.80;91.20;;;;;;5014026;28;20534;-72
2022/02/21 11:20:51;;;;;;;0.35;0.35;;;7.80;90.50;;;;;;5013666;28;20595;-72
2022/02/21 11:23:16;;;;;;;0.30;0.30;;;7.90;90.70;;;;;;5015058;28;20191;-74
2022/02/21 11:26:22;;;;;;;0.40;0.40;;;7.80;90.70;;;;;;5013825;28;20219;-74
2022/02/21 11:28:57;;;;;;;0.30;0.30;;;7.50;90.60;;;;;;5007714;28;20983;-73
2022/02/21 11:31:31;;;;;;;0.40;0.40;;;7.20;91.30;;;;;;5013154;28;20178;-72
2022/02/21 11:34:10;;;;;;;0.40;0.40;;;6.90;92.40;;;;;;5012898;28;20593;-71
2022/02/21 11:36:38;;;;;;;0.30;0.30;;;6.80;92.90;;;;;;5013799;28;20580;-72
2022/02/21 11:39:39;;;;;;;0.40;0.40;;;6.50;92.40;;;;;;5014912;28;20172;-71
2022/02/21 11:42:19;;;;;;;0.40;0.40;;;6.60;92.70;;;;;;5003508;28;20211;-71
2022/02/21 11:44:59;;;;;;;0.40;0.40;;;6.60;93.20;;;;;;5014812;28;20168;-75
2022/02/21 11:47:34;;;;;;;0.40;0.40;;;6.70;93.20;;;;;;5013416;28;20178;-73
2022/02/21 11:50:01;;;;;;;0.40;0.40;;;6.50;93.00;;;;;;5014727;28;20199;-72
2022/02/21 11:52:27;;;;;;;0.38;0.38;;;6.40;93.80;;;;;;4974433;28;1124093;-73
2022/02/21 11:54:54;;;;;;;0.30;0.30;;;6.30;94.50;;;;;;5014706;28;20605;-71
2022/02/21 11:57:25;;;;;;;0.40;0.40;;;6.20;94.50;;;;;;5015868;28;20292;-72
2022/02/21 11:59:51;;;;;;;0.40;0.40;;;6.10;94.80;;;;;;5016066;28;20569;-74
2022/02/21 12:02:17;;;;;;;0.40;0.40;;;5.90;95.30;;;;;;5016113;28;20277;-75
2022/02/21 12:04:50;;;;;;;0.30;0.30;;;5.90;95.40;;;;;;5014213;28;20179;-72
2022/02/21 12:07:33;;;;;;;0.40;0.40;;;5.50;95.70;;;;;;5014284;28;20172;-72
2022/02/21 12:10:14;;;;;;;0.40;0.40;;;5.30;96.40;;;;;;5013886;28;20202;-72
2022/02/21 12:13:22;;;;;;;0.30;0.30;;;5.40;96.90;;;;;;5013528;28;20561;-72
2022/02/21 12:16:07;;;;;;;0.40;0.40;;;5.40;96.80;;;;;;5010272;28;20552;-72
2022/02/21 12:18:50;;;;;;;0.40;0.40;;;5.90;96.40;;;;;;5013935;28;20226;-72
2022/02/21 12:21:26;;;;;;;0.38;0.38;;;6.30;95.70;;;;;;5013895;28;20152;-77
2022/02/21 12:23:58;;;;;;;0.38;0.38;;;6.70;94.70;;;;;;5015042;28;20210;-75
2022/02/21 12:26:37;;;;;;;0.30;0.30;;;6.80;93.80;;;;;;5015003;28;20581;-71
2022/02/21 12:29:24;;;;;;;0.30;0.30;;;7.10;93.40;;;;;;5015189;28;20200;-71
2022/02/21 12:32:06;;;;;;;0.40;0.40;;;7.50;93.10;;;;;;5015019;28;20247;-71
2022/02/21 12:34:34;;;;;;;0.40;0.40;;;7.50;92.10;;;;;;5015264;28;20607;-71
2022/02/21 12:37:03;;;;;;;0.40;0.40;;;7.70;92.50;;;;;;5014753;28;20614;-71
2022/02/21 12:39:34;;;;;;;0.40;0.40;;;7.70;91.80;;;;;;5014704;28;20203;-71
2022/02/21 12:42:00;;;;;;;0.30;0.30;;;7.60;91.50;;;;;;5014522;28;20581;-70
2022/02/21 12:44:26;;;;;;;0.40;0.40;;;7.20;91.80;;;;;;5014701;28;20207;-71
2022/02/21 12:46:56;;;;;;;0.38;0.38;;;6.60;92.60;;;;;;5013043;28;20637;-71
2022/02/21 12:49:31;;;;;;;0.40;0.40;;;6.50;93.50;;;;;;5014100;28;20203;-72
2022/02/21 12:52:11;;;;;;;0.38;0.38;;;6.40;94.20;;;;;;5014897;28;20181;-71
2022/02/21 12:54:58;;;;;;;0.40;0.40;;;6.50;94.00;;;;;;5014573;28;20685;-72
2022/02/21 12:57:25;;;;;;;0.30;0.30;;;6.60;94.10;;;;;;5014605;28;20176;-73
2022/02/21 12:59:54;;;;;;;0.40;0.40;;;6.80;93.70;;;;;;5014623;28;20180;-72